Jepson Prairie Reserve, California Weather observations

Data are for 10 minute period ending at time listed.
 Day   Time   Solar   Ave.   Ave.  Ave.  Vector  Max.   Baro.   Total    
  of    of     Rad.   Air    Rel.  Wind   Wind   Wind  Press.  Precip.   
Year   Day            Temp.  Hum.  Speed  Dir.   Gust                    
2014   (PST)  Kw/m2    F      %     mph   deg.    mph    mb.     in.     
-------------------------------------------------------------------------
 329   22:10   0.00   43.9    94    1.0     8     1.5   1025.7    0.00 
 329   22:20   0.00   43.6    94    0.0     0     0.0   1025.7    0.00 
 329   22:30   0.00   43.5    95    0.0     0     0.0   1025.7    0.00 
 329   22:40   0.00   43.5    95    0.0     0     0.0   1025.7    0.00 
 329   22:50   0.00   43.4    95    0.3   351     1.4   1025.7    0.00 
 329   23:00   0.00   43.5    95    0.0   343     0.9   1025.7    0.00 
 329   23:10   0.00   43.0    96    1.4   292     1.8   1025.7    0.00 
 329   23:20   0.00   43.1    96    1.4   306     1.8   1025.7    0.00 
 329   23:30   0.00   42.5    96    1.8   310     2.4   1025.7    0.00 
 329   23:40   0.00   41.2    96    1.1   104     1.5   1025.7    0.00 
 329   23:50   0.00   41.2    97    1.5    96     2.3   1025.4    0.00 
 330    0:00   0.00   39.5    96    3.9   105     5.0   1025.4    0.00 
 330    0:10   0.00   38.5    96    3.8    91     4.5   1025.4    0.00 
 330    0:20   0.00   38.5    97    4.0    80     4.4   1025.4    0.00 
 330    0:30   0.00   39.5    97    3.0    60     3.2   1025.4    0.00 
 330    0:40   0.00   40.2    97    3.2    41     3.9   1025.4    0.00 
 330    0:50   0.00   40.2    97    3.6    23     4.6   1025.1    0.00 
 330    1:00   0.00   40.3    97    4.3    20     4.7   1025.1    0.00 
 330    1:10   0.00   40.6    97    3.9    23     4.7   1024.7    0.00 
 330    1:20   0.00   40.6    97    3.1    12     3.8   1024.7    0.00 
 330    1:30   0.00   40.2    97    3.5    27     4.7   1024.7    0.00 
 330    1:40   0.00   39.5    96    2.7    32     4.3   1024.7    0.00 
 330    1:50   0.00   39.5    97    0.5    41     1.5   1024.7    0.00 
 330    2:00   0.00   39.8    97    2.5    14     3.8   1024.7    0.00 
 330    2:10   0.00   39.9    97    4.3     8     4.8   1024.7    0.00 
 330    2:20   0.00   40.3    97    3.9     9     5.2   1024.7    0.00 
 330    2:30   0.00   40.2    97    2.9     8     4.5   1024.7    0.00 
 330    2:40   0.00   40.1    97    4.9     6     6.1   1024.7    0.00 
 330    2:50   0.00   39.9    96    5.3     3     5.8   1024.7    0.00 
 330    3:00   0.00   39.6    96    5.2    15     6.4   1024.7    0.00 
 330    3:10   0.00   39.0    96    4.7    24     5.8   1024.7    0.00 
 330    3:20   0.00   40.0    96    3.5    20     4.1   1024.7    0.00 
 330    3:30   0.00   40.1    95    4.4     2     5.1   1024.7    0.00 
 330    3:40   0.00   39.4    94    4.1   349     4.8   1024.7    0.00 
 330    3:50   0.00   38.9    94    3.4   329     3.9   1024.7    0.00 
 330    4:00   0.00   39.0    95    3.0   336     3.9   1024.7    0.00 
 330    4:10   0.00   37.9    94    1.2     2     3.3   1024.7    0.00 
 330    4:20   0.00   37.3    95    0.5    12     1.2   1024.7    0.00 
 330    4:30   0.00   38.5    96    1.0    26     1.8   1024.7    0.00 
 330    4:40   0.00   39.1    96    0.7    52     1.5   1024.7    0.00 
 330    4:50   0.00   38.9    96    0.1    17     0.9   1025.1    0.00 
 330    5:00   0.00   38.1    96    0.8    19     2.2   1025.1    0.00 
 330    5:10   0.00   38.3    96    2.9    22     4.5   1024.7    0.00 
 330    5:20   0.00   38.1    96    4.3     9     5.0   1024.7    0.00 
 330    5:30   0.00   37.7    96    2.9    41     4.1   1024.7    0.00 
 330    5:40   0.00   37.0    96    2.1    66     3.1   1024.7    0.00 
 330    5:50   0.00   37.5    96    3.0    41     3.7   1024.7    0.00 
 330    6:00   0.00   37.1    96    3.4    44     3.8   1024.7    0.00 
 330    6:10   0.00   36.2    96    2.7    61     3.4   1024.7    0.00 
 330    6:20   0.00   35.9    96    1.8    40     2.3   1024.7    0.00 
 330    6:30   0.00   36.6    97    2.3    28     3.1   1024.7    0.00 
 330    6:40   0.00   36.9    97    2.2    26     2.7   1024.7    0.00 
 330    6:50   0.00   36.9    97    3.0    16     3.4   1025.1    0.00 
 330    7:00   0.00   36.9    97    2.9    12     3.4   1025.1    0.00 
 330    7:10   0.01   36.9    97    2.2     5     2.7   1025.1    0.00 
 330    7:20   0.02   36.3    97    2.1   356     2.7   1025.1    0.00 
 330    7:30   0.03   36.8    98    2.0    15     2.6   1025.4    0.00 
 330    7:40   0.05   37.8    97    2.6    25     3.2   1025.4    0.00 
 330    7:50   0.08   38.7    97    3.7    14     4.3   1025.4    0.00 
 330    8:00   0.12   40.2    96    3.1    18     3.6   1025.4    0.00 
 330    8:10   0.14   41.5    95    3.6    22     4.1   1025.1    0.00 
 330    8:20   0.17   43.0    95    3.6    18     4.5   1025.1    0.00 
 330    8:30   0.19   44.7    94    3.2    24     4.2   1025.1    0.00 
 330    8:40   0.22   46.0    93    3.0    24     3.9   1025.1    0.00 
 330    8:50   0.25   46.8    93    3.6    15     4.2   1025.1    0.00 
 330    9:00   0.27   47.8    92    4.0    12     4.7   1025.1    0.00 
 330    9:10   0.22   48.5    92    4.0    16     4.9   1025.1    0.00 
 330    9:20   0.32   49.5    91    4.1    12     5.6   1025.1    0.00 
 330    9:30   0.34   50.8    85    5.8   359     7.7   1025.4    0.00 
 330    9:40   0.35   51.8    80    6.6   356     8.7   1025.1    0.00 
 330    9:50   0.37   52.6    79    5.8     8     8.1   1025.1    0.00 
 330   10:00   0.39   53.3    77    5.2    19     6.6   1025.1    0.00 
 330   10:10   0.41   54.1    76    5.2    22     6.6   1025.1    0.00 
 330   10:20   0.42   55.2    75    4.9    30     6.6   1025.1    0.00 
 330   10:30   0.44   56.2    73    4.3    41     6.3   1024.7    0.00 
 330   10:40   0.45   56.8    71    5.1    34     7.1   1024.7    0.00 
 330   10:50   0.46   57.3    71    5.0    28     6.9   1024.7    0.00 
 330   11:00   0.47   58.1    68    4.5    22     6.1   1024.7    0.00 
 330   11:10   0.48   59.2    67    4.5    34     6.9   1024.4    0.00 
 330   11:20   0.48   59.8    64    4.6    30     6.4   1024.4    0.00 
 330   11:30   0.49   60.3    64    4.7    36     6.9   1024.4    0.00 
 330   11:40   0.49   61.4    63    4.8    36     7.2   1024.0    0.00 
 330   11:50   0.49   61.7    62    4.9    30     8.3   1024.0    0.00 
 330   12:00   0.49   61.6    62    5.1    26     8.3   1024.0    0.00 
 330   12:10   0.49   62.4    61    4.5    19     7.8   1023.7    0.00 
 330   12:20   0.49   62.9    60    5.1    29     8.0   1023.7    0.00 
 330   12:30   0.48   63.0    60    5.0    22     7.5   1023.4    0.00 
 330   12:40   0.47   63.3    58    5.4    38     8.4   1023.4    0.00 
 330   12:50   0.47   64.9    59    5.4    21     8.1   1023.0    0.00 
 330   13:00   0.46   64.6    58    5.3    25     9.9   1023.0    0.00 
 330   13:10   0.46   65.3    57    5.7    35     8.3   1023.0    0.00 
 330   13:20   0.44   65.9    57    5.2    40     9.1   1022.7    0.00 
 330   13:30   0.43   66.6    55    5.2    36     8.3   1022.7    0.00 
 330   13:40   0.41   67.4    56    4.6    39     7.4   1022.4    0.00 
 330   13:50   0.40   66.8    55    5.2    36     8.3   1022.4    0.00 
 330   14:00   0.39   65.4    54    5.0    22     8.4   1022.4    0.00 
 330   14:10   100.00  99999.0   99999  99999.0   99999   99999.0   99999.0   99999.00 
 330   14:20   0.35   66.1    53    5.2    28     8.8   1022.4    0.00 
 330   14:30   0.33   65.9    52    4.1    18     7.3   1022.4    0.00 
 330   14:40   0.32   67.0    52    4.5    27     8.0   1022.0    0.00 
 330   14:50   0.28   66.8    51    4.5    26     6.5   1022.0    0.00 
 330   15:00   0.20   66.3    52    4.7    49     7.7   1022.0    0.00 
 330   15:10   0.16   66.1    52    5.6    54     9.1   1021.7    0.00 
 330   15:20   0.20   65.7    53    5.0    49     6.6   1021.7    0.00 
 330   15:30   0.18   66.0    52    4.8    57     6.6   1021.7    0.00 
 330   15:40   0.13   65.3    52    4.7    61     5.9   1021.7    0.00 
 330   15:50   0.13   65.7    51    4.0    59     5.7   1021.7    0.00 
 330   16:00   0.10   65.3    53    3.6    58     4.9   1021.7    0.00 
 330   16:10   0.08   65.2    54    2.9    57     4.0   1021.7    0.00 
 330   16:20   0.05   64.4    56    2.8    60     3.6   1021.7    0.00 
 330   16:30   0.03   63.3    58    2.5    60     3.1   1021.7    0.00 
 330   16:40   0.02   62.3    61    2.0    64     2.2   1021.7    0.00 
 330   16:50   0.01   61.0    63    2.3    64     2.6   1021.7    0.00 
 330   17:00   0.00   59.9    66    2.8    83     3.1   1021.7    0.00 
 330   17:10   0.00   59.3    67    2.7    83     3.1   1021.7    0.00 
 330   17:20   0.00   58.5    69    3.6    83     4.1   1021.3    0.00 
 330   17:30   0.00   56.2    73    3.4    91     4.1   1021.3    0.00 
 330   17:40   0.00   54.8    77    3.1   113     3.4   1021.3    0.00 
 330   17:50   0.00   53.8    79    2.3   125     2.8   1021.3    0.00 
 330   18:00   0.00   53.3    81    2.3   121     2.6   1021.0    0.00 
 330   18:10   0.00   52.8    83    1.9   133     2.3   1021.0    0.00 
 330   18:20   0.00   52.5    83    1.4   189     2.6   1021.0    0.00 
 330   18:30   0.00   52.2    83    0.2   210     0.9   1021.0    0.00 
 330   18:40   0.00   52.4    81    0.5   164     2.1   1021.0    0.00 
 330   18:50   0.00   51.8    82    1.8   125     2.6   1021.0    0.00 
 330   19:00   0.00   51.1    86    1.4     5     3.4   1021.0    0.00 
 330   19:10   0.00   49.8    88    2.1   310     3.1   1021.0    0.00 
 330   19:20   0.00   49.5    89    1.1   334     3.0   1021.0    0.00 
 330   19:30   0.00   48.6    90    1.6    78     2.0   1020.7    0.00 
 330   19:40   0.00   47.8    92    0.1   320     1.0   1020.7    0.00 
 330   19:50   0.00   47.7    93    1.0   292     1.5   1021.0    0.00 
 330   20:00   0.00   47.5    92    1.6   292     3.7   1021.0    0.00 
 330   20:10   0.00   48.4    93    3.4   288     4.7   1021.0    0.00 
 330   20:20   0.00   48.6    93    1.6   286     3.0   1021.0    0.00 
 330   20:30   0.00   49.0    93    1.7   299     2.3   1021.0    0.00 
 330   20:40   0.00   49.6    93    0.4   300     1.2   1021.0    0.00 
 330   20:50   0.00   49.8    93    1.5   300     2.2   1021.0    0.00 
 330   21:00   0.00   49.8    94    1.5   300     2.0   1021.0    0.00 
 330   21:10   0.00   49.8    94    1.3   300     1.9   1021.0    0.00 
 330   21:20   0.00   49.7    94    1.0   300     1.5   1021.0    0.00 
 330   21:30   0.00   49.5    94    2.3   311     3.4   1021.0    0.00 
 330   21:40   0.00   49.2    94    2.8   336     3.1   1021.0    0.00 
 330   21:50   0.00   48.6    94    2.7   356     3.5   1021.0    0.00 
 330   22:00   0.00   47.9    93    3.2     2     3.7   1021.0    0.00 

Return to Jepson Prairie Reserve graphs page.


Western Regional Climate Center,wrcc@dri.edu